Time;durP1;ratioP1;P1;durP2;ratioP2;P2;SDS_P1;SDS_P2;PMS_P1;PMS_P2;Temp;Humidity;BMP_temperature;BMP_pressure;BME280_temperature;BME280_humidity;BME280_pressure;Samples;Min_cycle;Max_cycle;Signal;HPM_P1;HPM_P2
2022/02/19 00:02:20;;;;;;;6.10;1.07;;;;;;;9.01;66.08;98137.55;3625006;79;98434;-91
2022/02/19 00:07:21;;;;;;;6.47;1.20;;;;;;;8.98;63.34;98092.33;3605954;80;98320;-90
2022/02/19 00:12:22;;;;;;;4.53;1.00;;;;;;;8.99;59.43;98148.15;3621987;79;26087;-85
2022/02/19 00:17:23;;;;;;;3.63;0.90;;;;;;;9.08;55.19;98164.05;3629220;79;98100;-87
2022/02/19 00:22:24;;;;;;;4.57;1.10;;;;;;;9.11;54.68;98223.58;3615203;81;98077;-88
2022/02/19 00:27:25;;;;;;;9.15;1.35;;;;;;;9.00;55.78;98211.41;3586525;80;98685;-88
2022/02/19 00:32:26;;;;;;;5.27;1.17;;;;;;;8.86;56.46;98230.88;3576344;80;98690;-85
2022/02/19 00:37:26;;;;;;;5.70;1.10;;;;;;;8.72;56.46;98224.87;3610115;80;98398;-89
2022/02/19 00:42:27;;;;;;;5.78;1.62;;;;;;;8.60;57.73;98251.48;3617965;80;26408;-88
2022/02/19 00:47:28;;;;;;;7.40;1.17;;;;;;;8.48;58.35;98237.00;3594500;78;98190;-90
2022/02/19 00:52:29;;;;;;;4.00;1.00;;;;;;;8.35;59.30;98264.20;3650256;76;98746;-90
2022/02/19 00:57:30;;;;;;;7.23;1.30;;;;;;;8.18;59.24;98267.18;3626021;79;98342;-93
2022/02/19 01:02:31;;;;;;;5.17;0.87;;;;;;;8.02;58.77;98260.92;3614272;79;99421;-88
2022/02/19 01:07:32;;;;;;;4.67;0.87;;;;;;;8.02;58.77;98260.92;3634530;79;98362;-87
2022/02/19 01:12:35;;;;;;;7.43;1.60;;;;;;;8.11;60.58;98291.91;3630094;79;32954;-91
2022/02/19 01:17:35;;;;;;;3.47;0.90;;;;;;;8.07;59.43;98296.08;3608410;79;98432;-85
2022/02/19 01:22:39;;;;;;;5.13;0.77;;;;;;;8.11;58.40;98303.66;3626189;81;98445;-92
2022/02/19 01:27:40;;;;;;;6.03;0.90;;;;;;;8.06;59.05;98308.22;3627303;80;98371;-91
2022/02/19 01:32:41;;;;;;;4.70;0.97;;;;;;;8.03;59.30;98315.13;3630911;79;98243;-92
2022/02/19 01:37:42;;;;;;;4.80;0.80;;;;;;;8.03;59.43;98313.75;3631728;79;98320;-87
2022/02/19 01:42:43;;;;;;;4.87;0.70;;;;;;;8.00;58.59;98311.81;3621858;80;32841;-82
2022/02/19 01:47:44;;;;;;;4.63;0.90;;;;;;;7.98;56.75;98356.08;3630921;80;98047;-94
2022/02/19 01:52:45;;;;;;;8.13;1.17;;;;;;;7.93;55.77;98332.45;3641112;79;98486;-90
2022/02/19 01:57:48;;;;;;;5.20;0.97;;;;;;;7.83;56.05;98350.57;3618464;81;98803;-88
2022/02/19 02:02:49;;;;;;;6.17;1.43;;;;;;;7.72;57.00;98353.23;3609532;79;98667;-91
2022/02/19 02:07:50;;;;;;;3.47;0.83;;;;;;;7.64;57.97;98349.78;3617492;79;98728;-88
2022/02/19 02:12:51;;;;;;;6.08;0.90;;;;;;;7.54;58.69;98354.80;3628741;79;32888;-90
2022/02/19 02:17:52;;;;;;;4.92;0.90;;;;;;;7.47;59.08;98353.48;3632599;79;98303;-89
2022/02/19 02:22:53;;;;;;;5.17;1.47;;;;;;;7.42;59.40;98347.69;3632109;79;98066;-88
2022/02/19 02:27:56;;;;;;;6.53;1.20;;;;;;;7.37;59.17;98365.30;3628807;79;98748;-92
2022/02/19 02:33:10;;;;;;;4.57;1.10;;;;;;;7.33;59.10;98383.73;3635060;80;98693;-87
2022/02/19 02:38:11;;;;;;;6.78;1.20;;;;;;;7.30;58.27;98372.22;3624072;79;98897;-90
2022/02/19 02:43:12;;;;;;;4.30;0.90;;;;;;;7.28;57.32;98365.02;3632139;79;98675;-90
2022/02/19 02:48:13;;;;;;;5.60;1.47;;;;;;;7.25;56.28;98367.78;3618460;80;98227;-84
2022/02/19 02:53:14;;;;;;;10.23;1.83;;;;;;;7.20;56.16;98381.29;3631450;79;98201;-88
2022/02/19 02:58:15;;;;;;;10.77;1.30;;;;;;;7.18;53.36;98371.35;3624431;80;98510;-87
2022/02/19 03:03:15;;;;;;;14.63;2.37;;;;;;;7.23;53.89;98407.85;3643997;79;98865;-87
2022/02/19 03:08:16;;;;;;;6.90;1.23;;;;;;;7.22;51.50;98384.42;3608133;80;98901;-87
2022/02/19 03:13:17;;;;;;;7.50;1.60;;;;;;;7.27;51.77;98391.41;3622156;79;98351;-87
2022/02/19 03:18:18;;;;;;;8.10;1.20;;;;;;;7.29;53.89;98404.08;3609733;80;98457;-87
2022/02/19 03:23:19;;;;;;;11.07;1.47;;;;;;;7.29;54.56;98401.34;3614330;78;98323;-89
2022/02/19 03:28:19;;;;;;;9.53;2.30;;;;;;;7.26;56.17;98434.99;3614645;79;98711;-87
2022/02/19 03:33:20;;;;;;;10.27;1.53;;;;;;;7.25;56.55;98432.08;3534258;81;98747;-89
2022/02/19 03:38:22;;;;;;;13.53;2.00;;;;;;;7.24;56.67;98422.29;3557044;79;98380;-88
2022/02/19 03:43:23;;;;;;;9.23;2.00;;;;;;;7.22;57.46;98420.55;3629200;78;98965;-91
2022/02/19 03:48:23;;;;;;;7.40;1.60;;;;;;;7.20;55.68;98416.85;3623085;79;98125;-92
2022/02/19 03:53:24;;;;;;;8.67;1.60;;;;;;;7.19;56.29;98393.41;3634295;79;98389;-87
2022/02/19 03:58:25;;;;;;;8.50;2.03;;;;;;;7.15;55.68;98396.00;3618489;79;98418;-88
2022/02/19 04:03:26;;;;;;;8.13;1.50;;;;;;;7.08;55.51;98377.68;3629818;79;98388;-86
2022/02/19 04:08:28;;;;;;;9.27;1.67;;;;;;;7.04;53.58;98400.78;3626738;79;98584;-86
2022/02/19 04:13:29;;;;;;;8.67;2.17;;;;;;;6.99;53.55;98408.04;3631680;78;98332;-86
2022/02/19 04:18:30;;;;;;;10.40;1.63;;;;;;;6.96;52.74;98414.30;3617803;79;98408;-85
2022/02/19 04:23:30;;;;;;;8.17;1.40;;;;;;;6.92;53.30;98402.63;3624608;79;97945;-88
2022/02/19 04:28:31;;;;;;;12.63;2.87;;;;;;;6.90;52.87;98411.80;3625158;79;98404;-89
2022/02/19 04:33:32;;;;;;;7.97;2.10;;;;;;;6.89;52.92;98435.65;3626870;79;98858;-93
2022/02/19 04:38:33;;;;;;;9.63;2.20;;;;;;;6.84;51.50;98431.97;3630476;79;98295;-90
2022/02/19 04:43:34;;;;;;;10.10;1.80;;;;;;;6.94;52.32;98408.46;3631786;80;98772;-88
2022/02/19 04:48:35;;;;;;;7.63;1.80;;;;;;;6.92;52.64;98426.62;3625730;79;98540;-91
2022/02/19 04:53:36;;;;;;;12.75;2.27;;;;;;;6.93;52.12;98416.48;3619753;79;98446;-87
2022/02/19 04:58:36;;;;;;;11.80;2.50;;;;;;;6.95;52.03;98412.75;3628925;79;98444;-91
2022/02/19 05:03:37;;;;;;;7.83;1.30;;;;;;;6.99;51.38;98418.98;3618847;79;98850;-85
2022/02/19 05:08:38;;;;;;;12.40;1.93;;;;;;;7.00;52.31;98425.42;3632934;79;98436;-87
2022/02/19 05:13:40;;;;;;;12.07;1.93;;;;;;;6.97;52.36;98443.19;3633089;79;98568;-88
2022/02/19 05:18:41;;;;;;;7.97;2.10;;;;;;;6.99;52.95;98421.71;3616990;79;98132;-90
2022/02/19 05:23:42;;;;;;;10.07;1.77;;;;;;;6.96;52.35;98416.45;3615864;79;98518;-91
2022/02/19 05:28:43;;;;;;;9.03;1.73;;;;;;;6.95;53.44;98440.09;3623387;79;98758;-92
2022/02/19 05:33:44;;;;;;;8.37;2.43;;;;;;;6.95;53.42;98443.62;3625125;79;97451;-85
2022/02/19 05:38:45;;;;;;;11.37;1.80;;;;;;;6.95;53.99;98431.31;3630284;79;98369;-86
2022/02/19 05:43:46;;;;;;;10.73;1.60;;;;;;;6.93;54.49;98484.23;3627707;79;98972;-88
2022/02/19 05:48:47;;;;;;;9.03;1.63;;;;;;;6.92;54.41;98472.34;3636532;80;98177;-89
2022/02/19 05:53:48;;;;;;;11.07;1.63;;;;;;;6.89;54.81;98493.06;3621285;79;98364;-91
2022/02/19 05:58:48;;;;;;;6.62;1.20;;;;;;;6.88;55.11;98482.52;3638805;80;98155;-88
2022/02/19 06:03:49;;;;;;;8.93;1.63;;;;;;;6.87;55.07;98486.44;3632718;80;98452;-91
2022/02/19 06:08:50;;;;;;;5.17;1.17;;;;;;;6.84;55.59;98496.80;3628289;79;98502;-88
2022/02/19 06:13:51;;;;;;;5.30;1.13;;;;;;;6.80;55.43;98496.02;3624457;79;98333;-89
2022/02/19 06:18:52;;;;;;;4.90;1.23;;;;;;;6.77;56.17;98533.73;3634902;79;98342;-88
2022/02/19 06:23:53;;;;;;;6.50;1.30;;;;;;;6.70;56.10;98530.44;3614309;78;98333;-90
2022/02/19 06:28:54;;;;;;;10.63;1.70;;;;;;;6.70;56.10;98530.44;3620211;79;98578;-84
2022/02/19 06:33:55;;;;;;;6.33;1.20;;;;;;;6.69;55.35;98539.03;3630857;79;98787;-93
2022/02/19 06:38:56;;;;;;;11.30;1.53;;;;;;;6.65;56.34;98557.41;3626482;79;98775;-91
2022/02/19 06:43:57;;;;;;;7.00;1.43;;;;;;;6.62;57.08;98562.30;3638620;79;98771;-88
2022/02/19 06:48:58;;;;;;;5.13;1.33;;;;;;;6.60;57.33;98579.08;3617119;79;98453;-92
2022/02/19 06:53:59;;;;;;;6.10;1.40;;;;;;;6.59;56.66;98557.03;3620454;80;33836;-90
2022/02/19 06:59:00;;;;;;;4.27;1.10;;;;;;;6.60;56.53;98587.27;3611694;79;98474;-90
2022/02/19 07:04:01;;;;;;;6.77;1.20;;;;;;;6.64;56.20;98607.76;3623328;79;98254;-90
2022/02/19 07:09:01;;;;;;;5.53;1.00;;;;;;;6.64;56.20;98607.76;3610751;79;98481;-87
2022/02/19 07:14:02;;;;;;;8.30;2.00;;;;;;;6.63;56.65;98615.20;3596547;79;98356;-91
2022/02/19 07:19:03;;;;;;;7.17;1.70;;;;;;;6.64;56.42;98624.16;3623121;79;98737;-89
2022/02/19 07:24:10;;;;;;;8.63;1.50;;;;;;;6.65;57.00;98661.27;3618374;79;32965;-92
2022/02/19 07:29:11;;;;;;;12.73;1.90;;;;;;;6.63;56.87;98678.06;3629819;79;98429;-92
2022/02/19 07:34:12;;;;;;;3.73;1.00;;;;;;;6.65;56.99;98660.67;3613364;79;98758;-93
2022/02/19 07:39:13;;;;;;;14.17;1.70;;;;;;;6.67;56.78;98690.34;3615619;80;98649;-90
2022/02/19 07:44:14;;;;;;;8.20;1.40;;;;;;;6.66;56.68;98703.83;3624337;79;98504;-88
2022/02/19 07:59:54;;;;;;;7.70;1.20;;;;;;;6.64;57.39;98750.67;3628080;81;98310;-92
2022/02/19 08:04:55;;;;;;;4.93;1.30;;;;;;;6.63;57.62;98760.05;3633238;79;98108;-92
2022/02/19 08:09:56;;;;;;;10.70;3.20;;;;;;;6.63;57.86;98769.62;3638428;80;98666;-87
2022/02/19 08:14:56;;;;;;;6.93;1.90;;;;;;;6.64;58.52;98775.28;3636441;80;98891;-94
2022/02/19 08:19:58;;;;;;;7.17;1.77;;;;;;;6.67;58.68;98779.98;3624607;78;98724;-93
2022/02/19 08:24:59;;;;;;;7.73;1.37;;;;;;;6.71;59.32;98809.44;3632872;80;98748;-90
2022/02/19 08:30:01;;;;;;;7.43;1.30;;;;;;;6.74;59.38;98826.44;3644053;80;98012;-91
2022/02/19 08:35:02;;;;;;;5.40;1.10;;;;;;;6.74;60.17;98827.80;3645422;79;98265;-91
2022/02/19 08:40:05;;;;;;;5.20;1.30;;;;;;;6.76;59.74;98854.16;3635993;79;98354;-91
2022/02/19 08:45:08;;;;;;;6.53;1.63;;;;;;;6.76;60.27;98881.50;3644109;80;98969;-88
2022/02/19 08:50:14;;;;;;;4.35;0.93;;;;;;;6.76;59.99;98913.54;3620281;79;98698;-92
2022/02/19 08:55:15;;;;;;;3.47;0.93;;;;;;;6.79;59.81;98901.23;3622788;79;98311;-93
2022/02/19 09:00:17;;;;;;;5.47;1.10;;;;;;;6.83;60.15;98913.55;3613210;80;97804;-91
2022/02/19 09:05:20;;;;;;;2.15;0.90;;;;;;;6.85;60.48;98950.84;3628768;80;98166;-89
2022/02/19 09:10:21;;;;;;;6.17;1.30;;;;;;;6.86;59.77;98951.03;3618446;79;98268;-93
2022/02/19 09:15:25;;;;;;;7.27;2.23;;;;;;;6.87;59.22;98950.65;3618849;79;98628;-92
2022/02/19 09:20:28;;;;;;;6.03;1.60;;;;;;;6.90;60.16;98941.69;3619591;81;97893;-91
2022/02/19 09:25:29;;;;;;;4.57;1.03;;;;;;;6.93;60.34;98978.41;3628055;79;98857;-89
2022/02/19 09:30:30;;;;;;;4.13;1.13;;;;;;;6.96;60.66;99000.87;3625370;80;98211;-88
2022/02/19 09:35:31;;;;;;;11.53;2.00;;;;;;;6.98;60.80;98999.31;3639260;79;98159;-94
2022/02/19 09:40:32;;;;;;;7.43;1.40;;;;;;;6.99;61.81;99030.95;3617581;80;98690;-91
2022/02/19 09:45:33;;;;;;;7.17;2.00;;;;;;;6.98;62.37;99038.97;3611746;79;98946;-86
2022/02/19 09:50:35;;;;;;;5.50;1.03;;;;;;;6.95;62.40;99083.52;3617793;79;98717;-89
2022/02/19 09:55:36;;;;;;;4.17;0.83;;;;;;;6.90;62.92;99061.21;3627324;79;98940;-88
2022/02/19 10:00:43;;;;;;;7.07;1.47;;;;;;;6.80;63.60;99096.92;3619980;79;98058;-91
2022/02/19 10:05:44;;;;;;;7.03;1.63;;;;;;;6.87;63.83;99103.78;3622604;80;98566;-95
2022/02/19 10:10:52;;;;;;;6.23;1.83;;;;;;;6.98;63.88;99117.52;3612095;79;98630;-88
2022/02/19 10:15:53;;;;;;;8.10;2.10;;;;;;;7.02;63.13;99125.13;3630532;80;98730;-92
2022/02/19 10:21:14;;;;;;;3.47;1.03;;;;;;;7.01;63.51;99162.66;3620593;79;98335;-89
2022/02/19 10:26:19;;;;;;;6.23;1.70;;;;;;;6.98;63.08;99193.50;3632928;79;98356;-86
2022/02/19 10:31:20;;;;;;;5.80;1.45;;;;;;;7.01;62.95;99197.42;3611846;79;98620;-91
2022/02/19 10:36:22;;;;;;;5.27;1.60;;;;;;;7.03;62.61;99213.65;3625016;80;32911;-87
2022/02/19 10:41:38;;;;;;;8.97;2.77;;;;;;;7.13;62.96;99223.08;3601080;79;98687;-90
2022/02/19 10:46:39;;;;;;;7.97;1.30;;;;;;;7.17;62.36;99249.30;3606499;80;98603;-91
2022/02/19 10:51:41;;;;;;;5.37;1.50;;;;;;;7.18;62.43;99252.80;3630106;79;98281;-92
2022/02/19 10:56:42;;;;;;;6.43;1.20;;;;;;;7.26;62.15;99240.15;3638433;79;98763;-91
2022/02/19 11:01:46;;;;;;;3.98;1.00;;;;;;;7.35;62.41;99256.22;3622980;80;98331;-93
2022/02/19 11:06:48;;;;;;;6.40;1.40;;;;;;;7.27;63.46;99281.42;3625763;79;100652;-88
2022/02/19 11:11:50;;;;;;;3.27;1.07;;;;;;;7.19;63.72;99267.48;3615969;80;98477;-91
2022/02/19 11:16:52;;;;;;;3.63;1.07;;;;;;;7.29;63.33;99285.91;3624955;78;98423;-90
2022/02/19 11:21:58;;;;;;;5.00;0.70;;;;;;;7.43;63.45;99289.31;3644790;77;98688;-90
2022/02/19 11:27:01;;;;;;;5.13;0.80;;;;;;;7.46;63.35;99307.69;3625975;80;98804;-91
2022/02/19 11:32:04;;;;;;;5.43;0.87;;;;;;;7.49;63.52;99325.53;3629540;79;97473;-88
2022/02/19 11:37:13;;;;;;;3.20;1.00;;;;;;;7.59;62.98;99317.94;3625311;79;98795;-95
2022/02/19 11:42:20;;;;;;;3.10;1.37;;;;;;;7.77;62.62;99333.09;3634566;80;25937;-85
2022/02/19 11:47:28;;;;;;;4.37;0.97;;;;;;;7.83;61.36;99357.56;3613100;79;98108;-95
2022/02/19 11:52:29;;;;;;;5.37;1.10;;;;;;;7.70;61.89;99368.06;3652015;79;98521;-86
2022/02/19 11:57:35;;;;;;;4.07;1.30;;;;;;;7.61;62.02;99368.20;3635415;79;98677;-95
2022/02/19 12:02:35;;;;;;;6.60;1.65;;;;;;;7.57;62.08;99385.98;3631289;78;98776;-89
2022/02/19 12:07:59;;;;;;;5.60;1.30;;;;;;;7.53;63.29;99410.41;3601584;79;98657;-90
2022/02/19 12:13:10;;;;;;;6.87;2.02;;;;;;;7.49;63.42;99424.66;3634283;80;26017;-90
2022/02/19 12:18:19;;;;;;;5.53;1.15;;;;;;;7.40;63.73;99447.45;3633722;80;98582;-85
2022/02/19 12:23:15;;;;;;;10.13;1.90;;;;;;;7.29;65.91;99471.20;3636670;78;98470;-90
2022/02/19 12:28:18;;;;;;;12.03;1.93;;;;;;;7.13;67.02;99469.30;3637556;79;98380;-92
2022/02/19 12:33:29;;;;;;;7.53;1.70;;;;;;;7.07;66.93;99477.08;3634527;80;98474;-88
2022/02/19 12:38:32;;;;;;;9.00;1.87;;;;;;;7.09;66.95;99486.28;3626649;79;98329;-96
2022/02/19 12:43:32;;;;;;;3.80;1.43;;;;;;;6.89;67.08;99479.42;3628358;79;98334;-91
2022/02/19 12:48:33;;;;;;;4.77;1.30;;;;;;;6.94;66.89;99507.81;3624957;79;98104;-92
2022/02/19 12:53:35;;;;;;;4.63;1.57;;;;;;;6.96;66.47;99504.91;3631160;80;98451;-92
2022/02/19 12:58:41;;;;;;;7.95;2.95;;;;;;;7.12;66.25;99525.19;3631047;80;98136;-91
2022/02/19 13:03:47;;;;;;;6.45;1.70;;;;;;;7.20;65.96;99539.93;3626777;79;98229;-93
2022/02/19 13:08:47;;;;;;;5.73;1.57;;;;;;;7.27;64.85;99565.22;3612062;80;98700;-88
2022/02/19 13:13:48;;;;;;;3.83;0.90;;;;;;;7.37;63.92;99557.11;3636190;81;97510;-93
2022/02/19 13:18:51;;;;;;;5.00;1.87;;;;;;;7.44;63.62;99572.82;3617744;80;98380;-90
2022/02/19 13:23:55;;;;;;;4.33;1.20;;;;;;;7.50;63.26;99559.79;3625060;80;98598;-93
2022/02/19 13:29:00;;;;;;;7.00;1.30;;;;;;;7.54;63.80;99591.30;3623477;79;98477;-92
2022/02/19 13:34:01;;;;;;;5.35;1.50;;;;;;;7.50;62.98;99587.73;3626152;79;98268;-94
2022/02/19 18:22:41;;;;;;;12.73;4.27;;;;;;;5.02;73.51;100065.55;3588812;79;25884;-88
2022/02/19 18:27:42;;;;;;;11.50;3.50;;;;;;;4.91;74.00;100068.56;3394641;84;98665;-90
2022/02/19 18:32:48;;;;;;;11.20;3.73;;;;;;;4.81;74.08;100069.64;3411705;84;98502;-91
2022/02/19 18:37:49;;;;;;;10.37;3.60;;;;;;;4.71;74.23;100067.41;3389400;84;99015;-89
2022/02/19 18:42:50;;;;;;;7.30;2.30;;;;;;;4.61;74.07;100067.34;3420374;83;98628;-92
2022/02/19 18:47:52;;;;;;;7.25;2.75;;;;;;;4.54;73.77;100065.75;3404309;82;99042;-91
2022/02/19 18:52:55;;;;;;;9.80;2.50;;;;;;;4.50;73.27;100065.43;3398496;84;98904;-89
2022/02/19 18:57:56;;;;;;;12.40;3.70;;;;;;;4.46;72.94;100068.05;3394294;84;98169;-92
2022/02/19 19:02:56;;;;;;;11.43;3.40;;;;;;;4.43;72.67;100060.56;3411276;84;99022;-92
2022/02/19 19:08:10;;;;;;;;;;;;;;;;;;;;;
2022/02/19 19:13:05;;;;;;;10.53;3.22;;;;;;;4.36;72.16;100065.03;3395614;85;99042;-91
2022/02/19 19:18:06;;;;;;;9.33;2.72;;;;;;;4.34;71.89;100065.37;3400425;85;98975;-91
2022/02/19 19:23:07;;;;;;;11.47;3.40;;;;;;;4.31;71.28;100070.13;3405910;84;98820;-88
2022/02/19 19:28:11;;;;;;;11.47;2.80;;;;;;;4.31;70.91;100064.68;3428996;84;98662;-88
2022/02/19 19:33:13;;;;;;;7.23;2.60;;;;;;;4.31;70.67;100074.21;3445331;84;98526;-88
2022/02/19 19:38:15;;;;;;;10.60;3.02;;;;;;;4.26;71.12;100085.34;3445785;83;98172;-87
2022/02/19 19:43:18;;;;;;;10.13;3.00;;;;;;;4.24;70.35;100112.70;3467596;83;98806;-88
2022/02/19 19:48:19;;;;;;;8.80;2.62;;;;;;;4.21;70.16;100101.92;3463042;83;99103;-91
2022/02/19 19:53:21;;;;;;;10.23;2.60;;;;;;;4.18;70.30;100103.17;3473336;83;98787;-92
2022/02/19 19:58:22;;;;;;;8.00;2.50;;;;;;;4.13;70.49;100105.57;3466034;83;98927;-91
2022/02/19 20:03:23;;;;;;;8.97;2.80;;;;;;;4.09;70.30;100107.38;3470896;83;98671;-90
2022/02/19 20:08:24;;;;;;;10.53;3.17;;;;;;;4.05;70.25;100114.64;3464171;83;98797;-88
2022/02/19 20:13:32;;;;;;;9.38;2.70;;;;;;;4.04;69.90;100119.86;3476388;83;98921;-90
2022/02/19 20:18:36;;;;;;;12.23;2.83;;;;;;;4.03;69.32;100119.64;3458716;83;98900;-91
2022/02/19 20:23:35;;;;;;;9.47;2.50;;;;;;;4.00;69.67;100120.34;3492560;83;99023;-90
2022/02/19 20:28:37;;;;;;;8.40;2.57;;;;;;;3.99;69.69;100124.75;3464971;84;98701;-88
2022/02/19 20:33:38;;;;;;;10.60;3.30;;;;;;;3.95;69.72;100122.48;3446867;84;98562;-90
2022/02/19 20:38:39;;;;;;;19.37;5.78;;;;;;;3.92;69.69;100115.78;3440869;83;99013;-90
2022/02/19 20:43:41;;;;;;;12.17;4.67;;;;;;;3.92;69.82;100129.39;3462563;84;98972;-89
2022/02/19 20:48:42;;;;;;;14.78;3.30;;;;;;;3.92;69.58;100118.50;3439770;83;98849;-89
2022/02/19 20:53:44;;;;;;;12.10;4.73;;;;;;;3.94;69.33;100124.98;3435211;83;98606;-89
2022/02/19 20:58:46;;;;;;;11.93;3.50;;;;;;;3.92;69.13;100113.06;3449712;84;98689;-91
2022/02/19 21:03:47;;;;;;;16.13;4.30;;;;;;;3.91;69.11;100121.56;3446343;84;98647;-91
2022/02/19 21:08:48;;;;;;;11.88;4.20;;;;;;;3.88;69.01;100104.56;3433261;84;99069;-90
2022/02/19 21:13:50;;;;;;;16.43;5.43;;;;;;;3.82;68.88;100110.78;3447997;84;98741;-89
2022/02/19 21:18:51;;;;;;;14.40;4.85;;;;;;;3.76;68.79;100110.01;3441257;84;98990;-89
2022/02/19 21:23:52;;;;;;;13.48;4.55;;;;;;;3.70;69.36;100104.53;3448467;82;98219;-87
2022/02/19 21:28:54;;;;;;;14.47;4.20;;;;;;;3.62;68.77;100095.92;3472206;80;99025;-88
2022/02/19 21:33:55;;;;;;;11.40;3.80;;;;;;;3.56;68.72;100101.36;3484464;83;32911;-89
2022/02/19 21:38:56;;;;;;;9.68;3.98;;;;;;;3.46;68.71;100098.52;3475149;82;99063;-88
2022/02/19 21:43:58;;;;;;;13.50;4.80;;;;;;;3.37;68.91;100093.73;3484813;83;98772;-90
2022/02/19 21:48:59;;;;;;;11.50;5.13;;;;;;;3.31;69.32;100094.28;3471844;83;98967;-89
2022/02/19 21:54:01;;;;;;;18.43;4.97;;;;;;;3.22;69.72;100093.02;3489142;83;99015;-89
2022/02/19 21:59:03;;;;;;;17.07;5.23;;;;;;;3.16;69.69;100092.22;3470411;83;99112;-89
2022/02/19 22:04:05;;;;;;;18.70;6.10;;;;;;;3.09;70.12;100089.23;3484930;83;27864;-88
2022/02/19 22:09:06;;;;;;;19.63;6.03;;;;;;;3.04;70.46;100092.97;3472777;83;98738;-89
2022/02/19 22:14:07;;;;;;;15.60;6.80;;;;;;;3.02;70.82;100095.79;3479576;83;99002;-88
2022/02/19 22:19:08;;;;;;;19.60;6.80;;;;;;;3.00;71.13;100096.12;3480538;83;98740;-88
2022/02/19 22:24:10;;;;;;;21.93;6.97;;;;;;;2.98;71.22;100092.95;3505625;83;98941;-88
2022/02/19 22:29:11;;;;;;;21.77;6.43;;;;;;;2.97;71.44;100085.94;3478364;82;98907;-87
2022/02/19 22:34:12;;;;;;;21.10;6.53;;;;;;;2.97;71.56;100080.50;3480561;83;33663;-90
2022/02/19 22:39:13;;;;;;;16.47;5.73;;;;;;;2.95;71.76;100072.45;3460284;83;98677;-89
2022/02/19 22:44:14;;;;;;;17.07;6.23;;;;;;;2.93;72.05;100071.97;3502470;82;98976;-89
2022/02/19 22:49:17;;;;;;;19.30;6.77;;;;;;;2.91;72.11;100066.08;3492673;82;98993;-90
2022/02/19 22:54:18;;;;;;;21.97;6.13;;;;;;;2.86;72.23;100065.73;3504885;82;98966;-89
2022/02/19 22:59:19;;;;;;;16.50;6.43;;;;;;;2.83;72.40;100059.59;3497532;82;99043;-88
2022/02/19 23:09:39;;;;;;;13.43;5.17;;;;;;;2.78;72.61;100046.22;3477443;83;99273;-89
2022/02/19 23:14:40;;;;;;;17.63;6.37;;;;;;;2.73;72.96;100042.34;3493519;83;98712;-88
2022/02/19 23:19:41;;;;;;;15.93;4.97;;;;;;;2.70;73.11;100031.36;3487166;83;98868;-89
2022/02/19 23:24:42;;;;;;;20.07;6.73;;;;;;;2.63;73.19;100021.61;3498308;83;98994;-88
2022/02/19 23:29:43;;;;;;;17.70;6.00;;;;;;;2.59;73.39;100016.05;3489166;82;99054;-88
2022/02/19 23:34:44;;;;;;;18.40;5.73;;;;;;;2.54;73.77;100008.66;3486768;83;32948;-90
2022/02/19 23:39:45;;;;;;;21.63;7.27;;;;;;;2.50;73.78;100005.82;3470854;83;98847;-88
2022/02/19 23:44:46;;;;;;;20.72;7.05;;;;;;;2.46;73.94;99998.69;3448924;83;99185;-87
2022/02/19 23:49:47;;;;;;;18.48;6.30;;;;;;;2.43;74.34;100004.22;3460079;84;98856;-88
2022/02/19 23:54:48;;;;;;;21.83;7.27;;;;;;;2.40;74.56;100000.02;3468144;83;98919;-88
2022/02/19 23:59:49;;;;;;;22.93;6.30;;;;;;;2.40;74.66;100004.09;3458779;84;99005;-88
